Lulu Pass Weather Station

This weather station provides temperature, relative humidity (RH), wind speed, gust or max wind speed, and wind direction at 10014ft near Lulu Pass at the head of Fisher Creek. This data can be used with temperature and precipitation data from the Fisher Creek SNOTEL site.

This weather station was purchased by the Friends of the Avalanche Center.

If the data has not been updated recently you can view it directly on datagarrison.com

Elevation
10014ft
Jump to table bottom
Date Time Temperature
deg F
RH, % Wind Speed Wind Gust Wind Direction
09/19/20 13:00 36.9 86 13 28 SW - 204
09/19/20 12:00 37.1 88 17 27 SW - 209
09/19/20 11:00 38.1 87 12 22 SW - 223
09/19/20 10:00 41.5 74 8 20 W - 253
09/19/20 09:00 44.4 59 9 20 SW - 204
09/19/20 08:00 47.4 44 4 15 S - 160
09/19/20 07:00 47.7 43 4 13 S - 163
09/19/20 06:00 48.5 42 4 11 S - 161
09/19/20 05:00 47.9 43 4 12 S - 168
09/19/20 04:00 48.5 42 6 15 SE - 153
09/19/20 03:00 49.3 41 10 14 S - 166
09/19/20 02:00 49.5 42 8 15 S - 183
09/19/20 01:00 50.4 40 13 27 SW - 205
09/19/20 00:00 51.1 39 13 34 S - 188
09/18/20 23:00 51.4 38 11 23 S - 190
09/18/20 22:00 52.7 32 9 19 S - 188
09/18/20 21:00 53.6 31 10 21 S - 190
09/18/20 20:00 53.7 31 12 28 S - 202
09/18/20 19:00 55.1 27 9 17 SW - 209
09/18/20 18:00 56.4 26 11 20 SW - 208
09/18/20 17:00 59.7 23 13 24 SW - 206
09/18/20 16:00 58.6 24 9 18 SW - 218
09/18/20 15:00 60.1 22 10 19 SW - 208
09/18/20 14:00 59.8 24 9 19 SW - 213
09/18/20 13:00 60.0 24 9 22 SW - 208
09/18/20 12:00 61.8 23 8 19 S - 198
09/18/20 11:00 58.7 25 4 12 S - 199
09/18/20 10:00 56.4 28 3 10 S - 180
09/18/20 09:00 53.3 30 4 10 SE - 154
09/18/20 08:00 49.6 31 3 7 SE - 132
09/18/20 07:00 51.0 29 3 7 S - 163
09/18/20 06:00 50.4 30 7 13 S - 195
09/18/20 05:00 50.4 30 7 12 S - 194
09/18/20 04:00 51.3 30 5 9 S - 177
09/18/20 03:00 49.3 37 7 11 SE - 152
09/18/20 02:00 48.6 43 6 10 SE - 152
09/18/20 01:00 48.4 41 5 12 SE - 150
09/18/20 00:00 47.8 41 4 12 E - 104
09/17/20 23:00 49.0 39 4 9 SE - 132
09/17/20 22:00 48.7 39 4 12 SE - 145
09/17/20 21:00 49.2 40 7 13 S - 167
09/17/20 20:00 50.3 39 4 17 S - 167
09/17/20 19:00 54.4 36 5 14 SW - 225
09/17/20 18:00 56.5 43 3 9 W - 261
09/17/20 17:00 60.9 28 6 17 NW - 293
09/17/20 16:00 64.2 20 8 20 W - 268
09/17/20 15:00 62.0 22 10 21 NW - 299
09/17/20 14:00 59.4 23 7 18 W - 267
09/17/20 13:00 62.0 26 6 14 SW - 233
09/17/20 12:00 58.6 27 5 14 SW - 234